Time;durP1;ratioP1;P1;durP2;ratioP2;P2;SDS_P1;SDS_P2;PMS_P1;PMS_P2;Temp;Humidity;BMP_temperature;BMP_pressure;BME280_temperature;BME280_humidity;BME280_pressure;Samples;Min_cycle;Max_cycle;Signal;HPM_P1;HPM_P2
2024/03/02 00:01:35;;;;;;;2.17;1.30;;;9.80;99.90;;;;;;5038478;28;20021;-33
2024/03/02 00:04:02;;;;;;;1.10;1.00;;;9.80;99.90;;;;;;5039681;28;20032;-33
2024/03/02 00:06:28;;;;;;;1.08;0.98;;;9.80;99.90;;;;;;5039287;28;20021;-31
2024/03/02 00:08:58;;;;;;;1.85;1.02;;;9.80;99.90;;;;;;5038436;28;20746;-33
2024/03/02 00:11:23;;;;;;;1.20;1.10;;;9.90;99.90;;;;;;5039156;28;20863;-34
2024/03/02 00:13:52;;;;;;;1.65;1.10;;;9.90;99.90;;;;;;5042933;28;20047;-35
2024/03/02 00:16:18;;;;;;;2.45;1.30;;;9.90;99.90;;;;;;5043016;28;20371;-31
2024/03/02 00:18:44;;;;;;;1.65;1.05;;;9.90;99.90;;;;;;5042843;28;20041;-33
2024/03/02 00:21:09;;;;;;;3.08;1.17;;;9.90;99.90;;;;;;5043089;28;20033;-35
2024/03/02 00:23:35;;;;;;;1.77;1.10;;;9.90;99.90;;;;;;5042961;28;20029;-34
2024/03/02 00:26:01;;;;;;;1.45;1.00;;;9.90;99.90;;;;;;5044165;28;20044;-32
2024/03/02 00:28:35;;;;;;;1.60;1.10;;;10.00;99.90;;;;;;5042289;28;20079;-37
2024/03/02 00:31:08;;;;;;;1.27;0.90;;;10.00;99.90;;;;;;5022798;28;20682;-35
2024/03/02 00:33:43;;;;;;;1.67;1.27;;;10.00;99.90;;;;;;5038520;28;20029;-37
2024/03/02 00:36:16;;;;;;;1.38;1.08;;;10.00;99.90;;;;;;5043457;28;20140;-35
2024/03/02 00:38:49;;;;;;;2.42;1.00;;;10.00;99.90;;;;;;5042508;28;20029;-32
2024/03/02 00:41:27;;;;;;;2.38;1.13;;;10.00;99.90;;;;;;5042825;28;20033;-36
2024/03/02 00:44:01;;;;;;;2.05;1.30;;;10.00;99.90;;;;;;5041786;28;20024;-35
2024/03/02 00:46:34;;;;;;;1.20;1.00;;;10.00;99.90;;;;;;5040878;28;20029;-36
2024/03/02 00:49:02;;;;;;;1.00;0.90;;;10.00;99.90;;;;;;5041658;28;20421;-33
2024/03/02 00:51:30;;;;;;;1.85;0.95;;;10.00;99.90;;;;;;5040034;28;20653;-36
2024/03/02 00:53:58;;;;;;;1.42;1.20;;;10.00;99.90;;;;;;5040975;28;20902;-34
2024/03/02 00:56:25;;;;;;;1.25;0.95;;;10.00;99.90;;;;;;5040328;28;20028;-32
2024/03/02 00:58:51;;;;;;;2.08;0.90;;;10.00;99.90;;;;;;5040754;28;20082;-37
2024/03/02 01:01:19;;;;;;;2.78;0.85;;;10.00;99.90;;;;;;5041241;28;20036;-34
2024/03/02 01:03:45;;;;;;;1.52;0.80;;;10.00;99.90;;;;;;5041706;28;20159;-28
2024/03/02 01:06:11;;;;;;;1.17;0.80;;;10.00;99.90;;;;;;5041366;28;20107;-33
2024/03/02 01:08:36;;;;;;;1.10;0.80;;;10.00;99.90;;;;;;5042618;28;20539;-34
2024/03/02 01:11:03;;;;;;;1.50;0.98;;;10.00;99.90;;;;;;5042400;28;20040;-35
2024/03/02 01:13:29;;;;;;;0.98;0.80;;;9.90;99.90;;;;;;5041557;28;20045;-32
2024/03/02 01:15:55;;;;;;;1.17;0.82;;;9.90;99.90;;;;;;5041954;28;20078;-34
2024/03/02 01:18:22;;;;;;;1.25;0.93;;;10.00;99.90;;;;;;5041749;28;20028;-33
2024/03/02 01:20:48;;;;;;;1.73;0.90;;;9.90;99.90;;;;;;5040846;28;20063;-31
2024/03/02 01:23:13;;;;;;;1.90;1.13;;;9.90;99.90;;;;;;5042500;28;20021;-32
2024/03/02 01:25:39;;;;;;;0.90;0.75;;;9.90;99.90;;;;;;5042109;28;20062;-36
2024/03/02 01:28:05;;;;;;;2.08;0.77;;;10.00;99.90;;;;;;5042613;28;20742;-36
2024/03/02 01:30:31;;;;;;;0.60;0.60;;;10.00;99.90;;;;;;5041754;28;20021;-37
2024/03/02 01:32:58;;;;;;;0.88;0.70;;;9.90;99.90;;;;;;5041718;28;20476;-32
2024/03/02 01:35:24;;;;;;;0.82;0.60;;;9.90;99.90;;;;;;5041423;28;20036;-36
2024/03/02 01:37:49;;;;;;;0.50;0.50;;;9.90;99.90;;;;;;5042583;28;20017;-35
2024/03/02 01:40:15;;;;;;;0.95;0.43;;;9.90;99.90;;;;;;5041272;28;20024;-35
2024/03/02 01:42:41;;;;;;;0.45;0.45;;;9.90;99.90;;;;;;5041677;28;20475;-35
2024/03/02 01:45:08;;;;;;;0.52;0.30;;;9.90;99.90;;;;;;5041857;28;20096;-34
2024/03/02 01:47:34;;;;;;;0.30;0.30;;;9.90;99.90;;;;;;5041262;28;20033;-35
2024/03/02 01:50:00;;;;;;;0.30;0.30;;;9.90;99.90;;;;;;5041439;28;20079;-35
2024/03/02 01:52:27;;;;;;;0.43;0.38;;;9.80;99.90;;;;;;5041105;28;20503;-34
2024/03/02 01:54:52;;;;;;;0.20;0.20;;;9.80;99.90;;;;;;5041196;28;20047;-32
2024/03/02 01:57:18;;;;;;;0.32;0.30;;;9.80;99.90;;;;;;5040560;28;20021;-34
2024/03/02 01:59:45;;;;;;;0.30;0.30;;;9.80;99.90;;;;;;5041506;28;20138;-35
2024/03/02 02:02:10;;;;;;;0.28;0.25;;;9.80;99.90;;;;;;5040202;28;20013;-34
2024/03/02 02:04:36;;;;;;;0.15;0.15;;;9.80;99.90;;;;;;5040797;28;20029;-32
2024/03/02 02:07:01;;;;;;;0.35;0.30;;;9.70;99.90;;;;;;5040874;28;20254;-34
2024/03/02 02:09:27;;;;;;;0.17;0.17;;;9.80;99.90;;;;;;5040356;28;20415;-33
2024/03/02 02:11:52;;;;;;;0.30;0.30;;;9.70;99.90;;;;;;5040878;28;20036;-31
2024/03/02 02:14:18;;;;;;;0.10;0.10;;;9.70;99.90;;;;;;5040746;28;20044;-36
2024/03/02 02:16:44;;;;;;;0.22;0.20;;;9.70;99.90;;;;;;5040539;28;20036;-33
2024/03/02 02:19:10;;;;;;;0.20;0.20;;;9.70;99.90;;;;;;5040324;28;20036;-35
2024/03/02 02:21:35;;;;;;;0.55;0.30;;;9.70;99.90;;;;;;5040492;28;20039;-35
2024/03/02 02:24:03;;;;;;;0.50;0.22;;;9.70;99.90;;;;;;5040169;28;20020;-33
2024/03/02 02:26:29;;;;;;;0.22;0.22;;;9.70;99.90;;;;;;5040815;28;20087;-35
2024/03/02 02:28:54;;;;;;;0.20;0.20;;;9.60;99.90;;;;;;5041488;28;20028;-32
2024/03/02 02:31:20;;;;;;;0.20;0.20;;;9.70;99.90;;;;;;5039758;28;20032;-32
2024/03/02 02:33:45;;;;;;;0.20;0.20;;;9.60;99.90;;;;;;5040439;28;20029;-36
2024/03/02 02:36:11;;;;;;;0.30;0.25;;;9.60;99.90;;;;;;5039325;28;20033;-33
2024/03/02 02:38:42;;;;;;;0.20;0.20;;;9.60;99.90;;;;;;5040203;28;20021;-35
2024/03/02 02:41:08;;;;;;;0.30;0.20;;;9.60;99.90;;;;;;5040416;28;20093;-34
2024/03/02 02:43:34;;;;;;;0.20;0.20;;;9.60;99.90;;;;;;5039315;28;20033;-34
2024/03/02 02:45:59;;;;;;;0.20;0.20;;;9.60;99.90;;;;;;5040670;28;20032;-33
2024/03/02 02:48:25;;;;;;;0.22;0.22;;;9.60;99.90;;;;;;5039390;28;20141;-34
2024/03/02 02:50:51;;;;;;;0.30;0.30;;;9.50;99.90;;;;;;5040163;28;20094;-38
2024/03/02 02:53:16;;;;;;;0.20;0.20;;;9.50;99.90;;;;;;5039979;28;20033;-32
2024/03/02 02:55:43;;;;;;;0.13;0.13;;;9.50;99.90;;;;;;5040166;28;20076;-35
2024/03/02 02:58:09;;;;;;;0.20;0.20;;;9.50;99.90;;;;;;5039651;28;20032;-34
2024/03/02 03:00:36;;;;;;;0.20;0.20;;;9.50;99.90;;;;;;5039954;28;20359;-35
2024/03/02 03:03:02;;;;;;;0.30;0.30;;;9.50;99.90;;;;;;5040098;28;20094;-33
2024/03/02 03:05:28;;;;;;;0.40;0.30;;;9.60;99.90;;;;;;5039890;28;20125;-35
2024/03/02 03:07:53;;;;;;;0.43;0.22;;;9.50;99.90;;;;;;5040560;28;20021;-36
2024/03/02 03:10:21;;;;;;;0.20;0.20;;;9.50;99.90;;;;;;5040451;28;20399;-36
2024/03/02 03:12:47;;;;;;;0.20;0.20;;;9.50;99.90;;;;;;5039328;28;20060;-34
2024/03/02 03:15:14;;;;;;;0.25;0.25;;;9.50;99.90;;;;;;5040158;28;20040;-34
2024/03/02 03:17:47;;;;;;;0.30;0.30;;;9.50;99.90;;;;;;5040621;28;20199;-34
2024/03/02 03:20:12;;;;;;;0.30;0.28;;;9.50;99.90;;;;;;5039901;28;20017;-34
2024/03/02 03:22:38;;;;;;;0.40;0.40;;;9.50;99.90;;;;;;5040870;28;20247;-34
2024/03/02 03:25:05;;;;;;;0.70;0.20;;;9.40;99.90;;;;;;5040092;28;20108;-33
2024/03/02 03:27:33;;;;;;;0.20;0.20;;;9.40;99.90;;;;;;5039723;28;20025;-35
2024/03/02 03:29:59;;;;;;;0.20;0.20;;;9.40;99.90;;;;;;5040363;28;20020;-31
2024/03/02 03:32:26;;;;;;;0.20;0.20;;;9.40;99.90;;;;;;5039523;28;20032;-37
2024/03/02 03:34:52;;;;;;;0.63;0.30;;;9.30;99.90;;;;;;5039858;28;20098;-34
2024/03/02 03:37:17;;;;;;;0.20;0.20;;;9.40;99.90;;;;;;5039767;28;20024;-36
2024/03/02 03:39:43;;;;;;;0.30;0.30;;;9.30;99.90;;;;;;5039355;28;20118;-34
2024/03/02 03:42:12;;;;;;;0.20;0.20;;;9.30;99.90;;;;;;5039539;28;20762;-34
2024/03/02 03:44:41;;;;;;;0.40;0.30;;;9.30;99.90;;;;;;5039462;28;20038;-37
2024/03/02 03:47:07;;;;;;;0.20;0.20;;;9.30;99.90;;;;;;5039004;28;20028;-35
2024/03/02 03:49:35;;;;;;;0.52;0.20;;;9.30;99.90;;;;;;5039507;28;20041;-36
2024/03/02 03:52:01;;;;;;;0.38;0.20;;;9.30;99.90;;;;;;5040399;28;20032;-33
2024/03/02 03:54:26;;;;;;;0.63;0.35;;;9.30;99.90;;;;;;5038252;28;20032;-34
2024/03/02 03:56:52;;;;;;;0.47;0.30;;;9.20;99.90;;;;;;5040081;28;20036;-33
2024/03/02 03:59:17;;;;;;;0.52;0.30;;;9.30;99.90;;;;;;5039402;28;20445;-34
2024/03/02 04:01:43;;;;;;;0.20;0.20;;;9.20;99.90;;;;;;5027398;28;20100;-36
2024/03/02 04:04:09;;;;;;;0.30;0.25;;;9.20;99.90;;;;;;5039425;28;20446;-34
2024/03/02 04:06:34;;;;;;;0.30;0.30;;;9.20;99.90;;;;;;5039660;28;20478;-33
2024/03/02 04:09:00;;;;;;;0.30;0.20;;;9.20;99.90;;;;;;5039250;28;20120;-35
2024/03/02 04:11:25;;;;;;;0.30;0.30;;;9.20;99.90;;;;;;5038711;28;20068;-31
2024/03/02 04:13:51;;;;;;;0.70;0.40;;;9.20;99.90;;;;;;5039171;28;20047;-34
2024/03/02 04:16:16;;;;;;;1.15;0.50;;;9.20;99.90;;;;;;5038271;28;20040;-31
2024/03/02 04:18:42;;;;;;;0.55;0.35;;;9.20;99.90;;;;;;5039896;28;20582;-38
2024/03/02 04:21:07;;;;;;;0.40;0.40;;;9.20;99.90;;;;;;5039041;28;20775;-34
2024/03/02 04:23:33;;;;;;;0.45;0.30;;;9.10;99.90;;;;;;5038646;28;20100;-35
2024/03/02 04:25:59;;;;;;;0.30;0.30;;;9.10;99.90;;;;;;5039131;28;20020;-34
2024/03/02 04:28:28;;;;;;;0.30;0.30;;;9.10;99.90;;;;;;5039451;28;20111;-37
2024/03/02 04:30:53;;;;;;;0.30;0.25;;;9.10;99.90;;;;;;5038610;28;20021;-38
2024/03/02 04:33:19;;;;;;;0.40;0.40;;;9.10;99.90;;;;;;5038805;28;20021;-36
2024/03/02 04:35:47;;;;;;;0.20;0.20;;;9.10;99.90;;;;;;5038442;28;20458;-36
2024/03/02 04:38:12;;;;;;;0.25;0.25;;;9.10;99.90;;;;;;5039746;28;20113;-36
2024/03/02 04:40:38;;;;;;;0.55;0.20;;;9.10;99.90;;;;;;5039262;28;20608;-32
2024/03/02 04:43:04;;;;;;;0.57;0.30;;;9.10;99.90;;;;;;5039784;28;20023;-37
2024/03/02 04:45:29;;;;;;;0.10;0.10;;;9.10;99.90;;;;;;5040102;28;20044;-32
2024/03/02 04:47:55;;;;;;;0.10;0.10;;;9.00;99.90;;;;;;5039728;28;20218;-34
2024/03/02 04:50:21;;;;;;;0.30;0.30;;;9.00;99.90;;;;;;5039124;28;20154;-36
2024/03/02 04:52:46;;;;;;;0.10;0.10;;;8.90;99.90;;;;;;5039491;28;20047;-34
2024/03/02 04:57:54;;;;;;;0.57;0.30;;;8.80;99.90;;;;;;5039911;28;20041;-38
2024/03/02 05:00:20;;;;;;;0.65;0.30;;;8.70;99.90;;;;;;5042056;28;20488;-34
2024/03/02 05:02:46;;;;;;;0.30;0.30;;;8.70;99.90;;;;;;5042856;28;20032;-36
2024/03/02 05:05:12;;;;;;;0.20;0.20;;;8.60;99.90;;;;;;5042168;28;20033;-32
2024/03/02 05:07:37;;;;;;;0.38;0.30;;;8.60;99.90;;;;;;5042688;28;20028;-32
2024/03/02 05:10:03;;;;;;;0.20;0.20;;;8.50;99.90;;;;;;5043079;28;20033;-36
2024/03/02 05:12:55;;;;;;;0.60;0.40;;;8.50;99.90;;;;;;5042337;28;20089;-35
2024/03/02 05:15:15;;;;;;;0.30;0.30;;;8.50;99.90;;;;;;5042828;28;20122;-34
2024/03/02 05:17:44;;;;;;;0.20;0.20;;;8.40;99.90;;;;;;5042568;28;20029;-32
2024/03/02 05:20:11;;;;;;;0.30;0.30;;;8.40;99.90;;;;;;5042061;28;20020;-31
2024/03/02 05:22:37;;;;;;;0.20;0.20;;;8.40;99.90;;;;;;5042709;28;20036;-35
2024/03/02 05:25:06;;;;;;;0.65;0.40;;;8.40;99.90;;;;;;5041520;28;20122;-36
2024/03/02 05:27:32;;;;;;;0.30;0.30;;;8.40;99.90;;;;;;5041624;28;20025;-32
2024/03/02 05:29:58;;;;;;;0.40;0.40;;;8.40;99.90;;;;;;5042644;28;20037;-32
2024/03/02 05:32:24;;;;;;;0.55;0.55;;;8.40;99.90;;;;;;5040925;28;20028;-37
2024/03/02 05:34:50;;;;;;;1.10;0.40;;;8.40;99.90;;;;;;5030961;28;20044;-37
2024/03/02 05:37:16;;;;;;;0.40;0.40;;;8.40;99.90;;;;;;5041601;28;20090;-34
2024/03/02 05:39:43;;;;;;;0.50;0.40;;;8.40;99.90;;;;;;5041490;28;20025;-33
2024/03/02 05:42:09;;;;;;;0.22;0.20;;;8.30;99.90;;;;;;5041631;28;20094;-31
2024/03/02 05:44:35;;;;;;;0.35;0.35;;;8.30;99.90;;;;;;5040991;28;20032;-38
2024/03/02 05:47:01;;;;;;;0.82;0.20;;;8.30;99.90;;;;;;5041930;28;20025;-36
2024/03/02 05:49:27;;;;;;;0.47;0.30;;;8.20;99.90;;;;;;5041079;28;20032;-35
2024/03/02 05:51:52;;;;;;;0.38;0.30;;;8.20;99.90;;;;;;5042675;28;20114;-35
2024/03/02 05:54:18;;;;;;;0.40;0.30;;;8.10;99.90;;;;;;5040415;28;20797;-32
2024/03/02 05:56:44;;;;;;;0.40;0.40;;;8.10;99.90;;;;;;5042470;28;20692;-33
2024/03/02 05:59:18;;;;;;;0.85;0.47;;;8.00;99.90;;;;;;5041231;28;20020;-37
2024/03/02 06:01:46;;;;;;;0.55;0.30;;;8.00;99.90;;;;;;5041353;28;20020;-34
2024/03/02 06:04:12;;;;;;;0.32;0.32;;;8.00;99.90;;;;;;5041791;28;20052;-32
2024/03/02 06:06:38;;;;;;;0.40;0.30;;;8.00;99.90;;;;;;5041540;28;20783;-35
2024/03/02 06:09:07;;;;;;;0.63;0.40;;;8.00;99.90;;;;;;5039763;28;20029;-38
2024/03/02 06:11:36;;;;;;;1.20;0.57;;;8.10;99.90;;;;;;5041913;28;20060;-30
2024/03/02 06:14:03;;;;;;;0.43;0.43;;;8.20;99.90;;;;;;5040817;28;20059;-36
2024/03/02 06:16:29;;;;;;;0.70;0.50;;;8.10;99.90;;;;;;5041484;28;20025;-33
2024/03/02 06:18:57;;;;;;;1.10;0.57;;;8.20;99.90;;;;;;5041369;28;20021;-35
2024/03/02 06:21:29;;;;;;;1.20;0.65;;;8.10;99.90;;;;;;5029522;28;20558;-36
2024/03/02 06:23:54;;;;;;;1.10;0.70;;;8.10;99.90;;;;;;5041044;28;20030;-35
2024/03/02 06:26:20;;;;;;;0.75;0.40;;;8.00;99.90;;;;;;5040944;28;20478;-37
2024/03/02 06:28:46;;;;;;;0.57;0.47;;;8.00;99.90;;;;;;5041141;28;20032;-36
2024/03/02 06:31:12;;;;;;;0.68;0.60;;;8.00;99.90;;;;;;5040971;28;20174;-36
2024/03/02 06:33:38;;;;;;;0.70;0.50;;;7.90;99.90;;;;;;5041396;28;20025;-35
2024/03/02 06:36:04;;;;;;;0.47;0.47;;;7.90;99.90;;;;;;5041021;28;20114;-35
2024/03/02 06:38:32;;;;;;;0.30;0.30;;;7.90;99.90;;;;;;5041820;28;20474;-35
2024/03/02 06:40:57;;;;;;;0.32;0.30;;;7.90;99.90;;;;;;5041419;28;20075;-33
2024/03/02 06:43:23;;;;;;;0.25;0.25;;;7.90;99.90;;;;;;5040066;28;20493;-35
2024/03/02 06:45:50;;;;;;;0.40;0.40;;;7.90;99.90;;;;;;5041390;28;20029;-32
2024/03/02 06:48:19;;;;;;;0.20;0.20;;;7.90;99.90;;;;;;5040494;28;20032;-34
2024/03/02 06:50:48;;;;;;;0.60;0.38;;;7.90;99.90;;;;;;5040059;28;20040;-35
2024/03/02 06:53:17;;;;;;;0.25;0.25;;;8.00;99.90;;;;;;5040693;28;20390;-33
2024/03/02 06:55:44;;;;;;;0.30;0.30;;;8.00;99.90;;;;;;5040419;28;20052;-35
2024/03/02 06:58:16;;;;;;;0.30;0.28;;;8.00;99.90;;;;;;5039621;28;20040;-36
2024/03/02 07:00:43;;;;;;;0.50;0.40;;;8.00;99.90;;;;;;5040845;28;20040;-37
2024/03/02 07:03:09;;;;;;;0.40;0.40;;;8.00;99.90;;;;;;5040501;28;20028;-36
2024/03/02 07:05:35;;;;;;;0.30;0.30;;;8.10;99.90;;;;;;5039946;28;20040;-35
2024/03/02 07:08:01;;;;;;;0.90;0.70;;;8.10;99.90;;;;;;5041026;28;20025;-36
2024/03/02 07:10:27;;;;;;;0.80;0.70;;;8.20;99.90;;;;;;5039501;28;20025;-36
2024/03/02 07:12:53;;;;;;;0.45;0.45;;;8.20;99.90;;;;;;5040348;28;20051;-34
2024/03/02 07:15:29;;;;;;;0.93;0.50;;;8.20;99.90;;;;;;5040138;28;20068;-34
2024/03/02 07:17:55;;;;;;;0.35;0.35;;;8.20;99.90;;;;;;5036662;28;20784;-37
2024/03/02 07:20:21;;;;;;;0.30;0.30;;;8.10;99.90;;;;;;5040125;28;20043;-36
2024/03/02 07:22:50;;;;;;;0.32;0.30;;;8.10;99.90;;;;;;5040811;28;20728;-34
2024/03/02 07:25:16;;;;;;;0.77;0.38;;;8.10;99.90;;;;;;5039866;28;20033;-35
2024/03/02 07:27:41;;;;;;;0.70;0.55;;;8.10;99.90;;;;;;5040337;28;20028;-33
2024/03/02 07:30:14;;;;;;;1.02;0.40;;;8.10;99.90;;;;;;5040255;28;20048;-35
2024/03/02 07:32:41;;;;;;;0.68;0.30;;;8.10;99.90;;;;;;5039968;28;20107;-37
2024/03/02 07:35:09;;;;;;;0.20;0.20;;;8.10;99.90;;;;;;5040184;28;20044;-35
2024/03/02 07:37:35;;;;;;;0.35;0.30;;;8.20;99.90;;;;;;5040284;28;20016;-34
2024/03/02 07:40:00;;;;;;;0.40;0.40;;;8.20;99.90;;;;;;5039425;28;20036;-37
2024/03/02 07:42:26;;;;;;;0.30;0.30;;;8.30;99.90;;;;;;5039827;28;20648;-34
2024/03/02 07:44:52;;;;;;;0.43;0.30;;;8.40;99.90;;;;;;5040494;28;20483;-36
2024/03/02 07:47:17;;;;;;;0.28;0.28;;;8.50;99.90;;;;;;5038906;28;20047;-35
2024/03/02 07:49:45;;;;;;;0.50;0.50;;;8.50;99.90;;;;;;5039670;28;20029;-36
2024/03/02 07:52:11;;;;;;;0.68;0.50;;;8.60;99.90;;;;;;5036937;28;20044;-34
2024/03/02 07:54:36;;;;;;;1.48;0.40;;;8.50;99.90;;;;;;5038261;28;20140;-34
2024/03/02 07:57:02;;;;;;;0.65;0.50;;;8.60;99.90;;;;;;5038679;28;20136;-34
2024/03/02 07:59:28;;;;;;;0.82;0.60;;;8.70;99.90;;;;;;5039447;28;20053;-38
2024/03/02 08:01:55;;;;;;;0.95;0.65;;;8.70;99.90;;;;;;5038905;28;20032;-35
2024/03/02 08:04:21;;;;;;;0.70;0.60;;;8.80;99.90;;;;;;5039388;28;20302;-32
2024/03/02 08:06:47;;;;;;;0.85;0.60;;;8.80;99.90;;;;;;5039128;28;20559;-35
2024/03/02 08:09:12;;;;;;;1.52;0.50;;;8.90;99.90;;;;;;5038836;28;20107;-34
2024/03/02 08:11:38;;;;;;;0.70;0.32;;;9.00;99.90;;;;;;5039315;28;20033;-35
2024/03/02 08:14:04;;;;;;;1.17;0.60;;;9.00;99.90;;;;;;5038438;28;20052;-36
2024/03/02 08:16:32;;;;;;;0.60;0.30;;;9.10;99.90;;;;;;5038593;28;20021;-35
2024/03/02 08:18:58;;;;;;;0.80;0.50;;;9.20;99.90;;;;;;5039097;28;20593;-34
2024/03/02 08:21:24;;;;;;;1.10;0.52;;;9.30;99.90;;;;;;5037910;28;20108;-35
2024/03/02 08:23:50;;;;;;;0.85;0.43;;;9.30;99.90;;;;;;5038965;28;20037;-34
2024/03/02 08:26:16;;;;;;;0.35;0.30;;;9.50;99.90;;;;;;5038853;28;20044;-36
2024/03/02 08:28:42;;;;;;;0.45;0.30;;;9.50;99.90;;;;;;5037548;28;20120;-33
2024/03/02 08:31:08;;;;;;;0.82;0.50;;;9.60;99.90;;;;;;5038818;28;20036;-37
2024/03/02 08:33:33;;;;;;;0.98;0.47;;;9.60;99.90;;;;;;5041544;28;20041;-32
2024/03/02 08:36:00;;;;;;;0.47;0.35;;;9.70;99.90;;;;;;5042018;28;20086;-34
2024/03/02 08:38:26;;;;;;;0.40;0.30;;;9.70;99.90;;;;;;5042579;28;20456;-31
2024/03/02 08:40:51;;;;;;;1.45;0.70;;;9.80;99.90;;;;;;5043075;28;20025;-34
2024/03/02 08:43:17;;;;;;;1.10;0.50;;;9.80;99.90;;;;;;5041831;28;20654;-34
2024/03/02 08:45:43;;;;;;;1.75;0.60;;;9.80;99.90;;;;;;5042871;28;20040;-35
2024/03/02 08:48:09;;;;;;;0.65;0.45;;;9.80;99.90;;;;;;5042358;28;20061;-33
2024/03/02 08:50:37;;;;;;;1.23;0.50;;;9.80;99.90;;;;;;5041469;28;20025;-36
2024/03/02 08:53:06;;;;;;;1.30;0.50;;;9.80;99.90;;;;;;5042385;28;20025;-36
2024/03/02 08:55:31;;;;;;;0.32;0.32;;;9.70;99.90;;;;;;5042270;28;20597;-35
2024/03/02 08:57:57;;;;;;;0.77;0.50;;;9.70;99.90;;;;;;5041794;28;20116;-35
2024/03/02 09:00:23;;;;;;;0.60;0.50;;;9.70;99.90;;;;;;5041016;28;20052;-32
2024/03/02 09:02:49;;;;;;;1.00;0.40;;;9.70;99.90;;;;;;5042084;28;20033;-35
2024/03/02 09:05:15;;;;;;;1.35;0.60;;;9.70;99.90;;;;;;5041629;28;20056;-32
2024/03/02 09:07:40;;;;;;;0.63;0.55;;;9.70;99.90;;;;;;5040708;28;20562;-35
2024/03/02 09:10:07;;;;;;;1.20;0.60;;;9.80;99.90;;;;;;5040252;28;20033;-32
2024/03/02 09:12:33;;;;;;;1.10;0.60;;;9.80;99.90;;;;;;5040582;28;20065;-36
2024/03/02 09:15:01;;;;;;;2.80;0.70;;;9.80;99.90;;;;;;5040798;28;20033;-34
2024/03/02 09:17:26;;;;;;;1.80;0.82;;;9.80;99.90;;;;;;5039413;28;20033;-33
2024/03/02 09:19:54;;;;;;;1.48;0.60;;;9.90;99.90;;;;;;5041144;28;20635;-34
2024/03/02 09:22:20;;;;;;;1.35;0.45;;;9.90;99.90;;;;;;5041026;28;20020;-34
2024/03/02 09:24:45;;;;;;;1.23;0.70;;;9.90;99.90;;;;;;5041495;28;20033;-33
2024/03/02 09:27:11;;;;;;;0.70;0.40;;;9.90;99.90;;;;;;5041549;28;20029;-34
2024/03/02 09:29:37;;;;;;;0.70;0.47;;;9.90;99.90;;;;;;5041498;28;20021;-36
2024/03/02 09:32:03;;;;;;;1.65;0.43;;;10.00;99.90;;;;;;5041394;28;20519;-34
2024/03/02 09:34:28;;;;;;;2.58;0.70;;;10.00;99.90;;;;;;5041583;28;20448;-33
2024/03/02 09:36:54;;;;;;;1.73;0.70;;;10.00;99.90;;;;;;5042285;28;20028;-32
2024/03/02 09:39:20;;;;;;;1.80;0.50;;;10.00;99.90;;;;;;5041074;28;20055;-32
2024/03/02 09:41:46;;;;;;;2.30;0.50;;;10.00;99.90;;;;;;5041777;28;20067;-32
2024/03/02 09:44:12;;;;;;;0.95;0.50;;;10.00;99.90;;;;;;5041450;28;20063;-36
2024/03/02 09:46:38;;;;;;;1.65;0.77;;;10.10;99.90;;;;;;5040718;28;20419;-34
2024/03/02 09:49:04;;;;;;;1.05;0.47;;;10.10;99.90;;;;;;5041445;28;20032;-32
2024/03/02 09:51:31;;;;;;;0.60;0.40;;;10.20;99.90;;;;;;5041474;28;20608;-30
2024/03/02 09:53:57;;;;;;;1.63;0.60;;;10.20;99.90;;;;;;5041154;28;20033;-32
2024/03/02 09:56:22;;;;;;;1.05;0.47;;;10.20;99.90;;;;;;5041265;28;20062;-36
2024/03/02 09:58:48;;;;;;;0.73;0.50;;;10.30;99.90;;;;;;5042520;28;20461;-34
2024/03/02 10:01:14;;;;;;;0.80;0.60;;;10.30;99.90;;;;;;5040360;28;20723;-37
2024/03/02 10:03:40;;;;;;;2.83;1.00;;;10.40;99.90;;;;;;5041071;28;20802;-32
2024/03/02 10:06:25;;;;;;;1.95;1.00;;;10.40;99.90;;;;;;5041015;28;20028;-35
2024/03/02 10:08:51;;;;;;;3.08;0.60;;;10.50;99.90;;;;;;5040593;28;20025;-32
2024/03/02 10:11:36;;;;;;;1.30;0.60;;;10.50;99.90;;;;;;5041480;28;20132;-36
2024/03/02 10:14:13;;;;;;;0.90;0.60;;;10.50;99.90;;;;;;5040362;28;20075;-37
2024/03/02 10:16:43;;;;;;;0.60;0.40;;;10.60;99.90;;;;;;5041373;28;20040;-33
2024/03/02 10:19:22;;;;;;;1.42;0.68;;;10.60;99.90;;;;;;5041154;28;20028;-36
2024/03/02 10:21:51;;;;;;;1.02;0.40;;;10.70;99.90;;;;;;5040494;28;20085;-36
2024/03/02 10:24:18;;;;;;;1.80;0.50;;;10.70;99.90;;;;;;5041036;28;20042;-30
2024/03/02 10:26:44;;;;;;;0.63;0.40;;;10.80;99.90;;;;;;5040911;28;20033;-35
2024/03/02 10:29:10;;;;;;;0.82;0.30;;;10.80;99.90;;;;;;5039565;28;20024;-34
2024/03/02 10:31:41;;;;;;;1.65;0.50;;;10.80;99.90;;;;;;5040844;28;20085;-36
2024/03/02 10:34:07;;;;;;;1.08;0.60;;;10.90;99.90;;;;;;5040600;28;20900;-36
2024/03/02 10:36:37;;;;;;;0.98;0.52;;;10.90;99.90;;;;;;5040033;28;20110;-35
2024/03/02 10:39:06;;;;;;;1.67;0.60;;;11.00;99.90;;;;;;5040443;28;20105;-32
2024/03/02 10:41:40;;;;;;;1.10;0.60;;;11.00;99.90;;;;;;5040076;28;20051;-36
2024/03/02 10:44:09;;;;;;;0.70;0.60;;;11.10;99.90;;;;;;5040444;28;20051;-34
2024/03/02 10:46:36;;;;;;;1.88;0.50;;;11.10;99.90;;;;;;5020717;28;20472;-34
2024/03/02 10:49:06;;;;;;;3.50;0.90;;;11.10;99.90;;;;;;5034820;28;20040;-32
2024/03/02 10:51:33;;;;;;;1.52;0.60;;;11.20;99.90;;;;;;5040288;28;20487;-35
2024/03/02 10:54:03;;;;;;;1.08;0.50;;;11.20;99.90;;;;;;5040917;28;20111;-34
2024/03/02 10:56:30;;;;;;;1.10;0.57;;;11.20;99.90;;;;;;5039295;28;20647;-32
2024/03/02 10:59:20;;;;;;;1.85;0.43;;;11.20;99.90;;;;;;5040704;28;20491;-35
2024/03/02 11:01:48;;;;;;;1.17;0.63;;;11.30;99.90;;;;;;5039799;28;20024;-36
2024/03/02 11:04:16;;;;;;;1.23;0.73;;;11.30;99.90;;;;;;5039761;28;20055;-34
2024/03/02 11:06:49;;;;;;;2.55;0.65;;;11.30;99.90;;;;;;5040234;28;20079;-34
2024/03/02 11:09:20;;;;;;;1.00;0.40;;;11.40;99.90;;;;;;5040180;28;20057;-36
2024/03/02 11:11:55;;;;;;;1.17;0.55;;;11.50;99.90;;;;;;5040085;28;20439;-34
2024/03/02 11:14:24;;;;;;;0.93;0.50;;;11.50;99.90;;;;;;5040167;28;20052;-34
2024/03/02 11:16:54;;;;;;;1.35;0.35;;;11.50;99.90;;;;;;5040190;28;20017;-35
2024/03/02 11:19:19;;;;;;;0.63;0.30;;;11.60;99.90;;;;;;5039256;28;20032;-33
2024/03/02 11:21:45;;;;;;;1.33;0.50;;;11.60;99.90;;;;;;5040345;28;20025;-34
2024/03/02 11:24:41;;;;;;;0.90;0.50;;;11.70;99.90;;;;;;5039145;28;20079;-32
2024/03/02 11:27:16;;;;;;;0.98;0.40;;;11.70;99.90;;;;;;5039768;28;20033;-32
2024/03/02 11:29:41;;;;;;;0.73;0.30;;;11.80;99.90;;;;;;5040456;28;20395;-32
2024/03/02 11:32:25;;;;;;;0.93;0.50;;;11.80;99.90;;;;;;5039442;28;20025;-32
2024/03/02 11:34:51;;;;;;;0.70;0.32;;;11.80;99.90;;;;;;5040302;28;20130;-34
2024/03/02 11:37:18;;;;;;;6.25;1.67;;;11.80;99.90;;;;;;5040003;28;20037;-38
2024/03/02 11:39:45;;;;;;;2.38;0.80;;;11.90;99.90;;;;;;5039621;28;20471;-35
2024/03/02 11:42:14;;;;;;;0.60;0.50;;;12.00;99.90;;;;;;5039520;28;20028;-34
2024/03/02 11:44:50;;;;;;;0.77;0.50;;;12.00;99.90;;;;;;5035307;28;20091;-34
2024/03/02 11:47:17;;;;;;;1.67;0.75;;;12.00;99.90;;;;;;5028509;28;20048;-36
2024/03/02 11:49:51;;;;;;;0.45;0.30;;;12.10;99.90;;;;;;5039351;28;20036;-31
2024/03/02 11:52:17;;;;;;;0.93;0.32;;;12.10;99.90;;;;;;5039166;28;20029;-36
2024/03/02 11:54:48;;;;;;;1.65;0.32;;;12.10;99.90;;;;;;5039563;28;20048;-34
2024/03/02 11:57:25;;;;;;;1.65;0.47;;;12.20;99.90;;;;;;5034723;28;20591;-34
2024/03/02 11:59:51;;;;;;;1.13;0.30;;;12.20;99.90;;;;;;5037146;28;20586;-34
2024/03/02 12:02:18;;;;;;;0.65;0.40;;;12.20;99.90;;;;;;5038146;28;20025;-36
2024/03/02 12:04:45;;;;;;;0.77;0.43;;;12.20;99.90;;;;;;5038180;28;20056;-34
2024/03/02 12:07:12;;;;;;;1.52;0.65;;;12.20;99.90;;;;;;5037126;28;20029;-34
2024/03/02 12:09:37;;;;;;;0.80;0.65;;;12.30;99.90;;;;;;5042857;28;20029;-35
2024/03/02 12:12:08;;;;;;;1.50;0.80;;;12.30;99.90;;;;;;5043834;28;20087;-34
2024/03/02 12:14:35;;;;;;;1.50;0.50;;;12.40;99.90;;;;;;5043207;28;20428;-34
2024/03/02 12:17:01;;;;;;;0.73;0.38;;;12.40;99.90;;;;;;5043652;28;20579;-34
2024/03/02 12:19:29;;;;;;;1.55;0.60;;;12.40;99.90;;;;;;5043230;28;20029;-37
2024/03/02 12:21:59;;;;;;;0.88;0.50;;;12.40;99.90;;;;;;5043057;28;20021;-37
2024/03/02 12:24:27;;;;;;;1.42;0.45;;;12.50;99.90;;;;;;5043119;28;20079;-36
2024/03/02 12:26:53;;;;;;;0.77;0.40;;;12.50;99.90;;;;;;5043080;28;20032;-35
2024/03/02 12:29:20;;;;;;;0.82;0.30;;;12.60;99.90;;;;;;5043505;28;20037;-35
2024/03/02 12:31:52;;;;;;;0.40;0.30;;;12.70;99.90;;;;;;5043375;28;20539;-36
2024/03/02 12:34:21;;;;;;;0.55;0.40;;;12.70;99.90;;;;;;5042365;28;20040;-38
2024/03/02 12:36:52;;;;;;;1.05;0.50;;;12.80;99.90;;;;;;5044072;28;20055;-37
2024/03/02 12:39:19;;;;;;;0.85;0.40;;;12.80;99.90;;;;;;5042945;28;20475;-35
2024/03/02 12:41:50;;;;;;;0.85;0.32;;;12.80;99.90;;;;;;5042374;28;20048;-36
2024/03/02 12:44:16;;;;;;;0.85;0.30;;;12.80;99.90;;;;;;5042625;28;20032;-37
2024/03/02 12:46:42;;;;;;;0.68;0.38;;;12.90;99.90;;;;;;5042328;28;20040;-36
2024/03/02 12:49:12;;;;;;;1.48;0.43;;;12.90;99.90;;;;;;5041540;28;20021;-35
2024/03/02 12:51:40;;;;;;;0.75;0.30;;;12.90;99.90;;;;;;5041884;28;20052;-36
2024/03/02 12:54:06;;;;;;;1.75;0.40;;;13.00;99.90;;;;;;5042685;28;20025;-38
2024/03/02 12:56:32;;;;;;;0.47;0.40;;;13.00;99.90;;;;;;5041930;28;20035;-33